Time;durP1;ratioP1;P1;durP2;ratioP2;P2;SDS_P1;SDS_P2;PMS_P1;PMS_P2;Temp;Humidity;BMP_temperature;BMP_pressure;BME280_temperature;BME280_humidity;BME280_pressure;Samples;Min_cycle;Max_cycle;Signal;HPM_P1;HPM_P2
2023/01/10 05:01:09;;;;;;;5.03;3.23;;;5.10;99.90;;;;;;5742188;23;20502;-71
2023/01/10 05:03:36;;;;;;;6.70;3.87;;;5.10;99.90;;;;;;4989276;28;20462;-71
2023/01/10 05:06:02;;;;;;;5.53;3.90;;;5.10;99.90;;;;;;4988584;28;20459;-71
2023/01/10 05:08:29;;;;;;;4.80;3.10;;;5.10;99.90;;;;;;4988972;28;20877;-71
2023/01/10 05:10:56;;;;;;;4.77;3.67;;;5.10;99.90;;;;;;4989141;28;20478;-72
2023/01/10 05:13:23;;;;;;;4.60;3.40;;;5.10;99.90;;;;;;4989282;28;20459;-71
2023/01/10 05:15:53;;;;;;;9.03;5.00;;;5.10;99.90;;;;;;4988553;28;20486;-71
2023/01/10 05:18:21;;;;;;;4.63;3.63;;;5.10;99.90;;;;;;4988580;28;20451;-72
2023/01/10 05:20:48;;;;;;;6.77;3.90;;;5.10;99.90;;;;;;4986872;28;20471;-72
2023/01/10 05:23:14;;;;;;;4.57;3.60;;;5.10;99.90;;;;;;4989570;28;20502;-72
2023/01/10 05:25:41;;;;;;;7.03;3.37;;;5.10;99.90;;;;;;4989247;28;20455;-72
2023/01/10 05:28:08;;;;;;;9.03;3.60;;;5.10;99.90;;;;;;4988525;28;20447;-72
2023/01/10 05:30:35;;;;;;;4.13;3.70;;;5.00;99.90;;;;;;4989370;28;20479;-72
2023/01/10 05:33:04;;;;;;;10.53;4.33;;;4.90;99.90;;;;;;4987375;28;20970;-68
2023/01/10 05:35:33;;;;;;;11.13;3.53;;;4.90;99.90;;;;;;4988935;28;20919;-68
2023/01/10 05:38:00;;;;;;;8.80;3.80;;;5.00;99.90;;;;;;4988516;28;20462;-68
2023/01/10 05:40:26;;;;;;;9.70;3.83;;;5.00;99.90;;;;;;4988674;28;21030;-68
2023/01/10 05:42:53;;;;;;;13.80;3.90;;;5.00;99.90;;;;;;4989125;28;20495;-75
2023/01/10 05:45:20;;;;;;;8.20;3.60;;;5.00;99.90;;;;;;4988634;28;20464;-74
2023/01/10 05:47:47;;;;;;;10.37;4.30;;;5.00;99.90;;;;;;4988225;28;20795;-74
2023/01/10 05:50:14;;;;;;;7.50;4.10;;;5.00;99.90;;;;;;4988531;28;20829;-73
2023/01/10 05:52:42;;;;;;;11.87;4.27;;;5.00;99.90;;;;;;4989108;28;20452;-73
2023/01/10 05:55:09;;;;;;;13.10;4.00;;;5.10;99.90;;;;;;4989084;28;20450;-72
2023/01/10 05:57:36;;;;;;;12.50;4.23;;;5.10;99.90;;;;;;4987570;28;20956;-72
2023/01/10 06:00:05;;;;;;;11.73;4.13;;;5.00;99.90;;;;;;4988743;28;20465;-72
2023/01/10 06:02:32;;;;;;;15.07;3.80;;;5.10;99.90;;;;;;4987950;28;20591;-72
2023/01/10 06:04:59;;;;;;;15.07;4.43;;;5.00;99.90;;;;;;4988546;28;20456;-72
2023/01/10 06:07:25;;;;;;;11.33;4.07;;;5.00;99.90;;;;;;4987572;28;20452;-72
2023/01/10 06:09:53;;;;;;;14.13;5.43;;;5.00;99.90;;;;;;4988274;28;20465;-72
2023/01/10 06:12:20;;;;;;;14.70;5.10;;;5.00;99.90;;;;;;4988228;28;20479;-72
2023/01/10 06:14:47;;;;;;;16.77;4.03;;;5.00;99.90;;;;;;4988522;28;20466;-72
2023/01/10 06:17:14;;;;;;;24.17;4.03;;;5.00;99.90;;;;;;4987259;28;20466;-72
2023/01/10 06:19:41;;;;;;;13.07;3.50;;;5.10;99.90;;;;;;4988272;28;20463;-72
2023/01/10 06:22:07;;;;;;;12.33;3.50;;;5.10;99.90;;;;;;4988253;28;20499;-72
2023/01/10 06:24:34;;;;;;;8.10;4.03;;;5.00;99.90;;;;;;4987405;28;20889;-73
2023/01/10 06:27:02;;;;;;;12.83;3.37;;;5.10;99.90;;;;;;4987083;28;20459;-71
2023/01/10 06:29:29;;;;;;;16.20;3.90;;;5.00;99.90;;;;;;4988101;28;20463;-72
2023/01/10 06:31:56;;;;;;;14.00;3.80;;;5.00;99.90;;;;;;4988149;28;20487;-72
2023/01/10 06:34:22;;;;;;;14.33;3.77;;;5.10;99.90;;;;;;4987575;28;20458;-73
2023/01/10 06:36:49;;;;;;;16.80;3.33;;;5.10;99.90;;;;;;4987420;28;20462;-73
2023/01/10 06:39:16;;;;;;;13.83;3.73;;;5.10;99.90;;;;;;4987844;28;20562;-73
2023/01/10 06:41:43;;;;;;;10.40;3.73;;;5.10;99.90;;;;;;4987416;28;20468;-72
2023/01/10 06:44:12;;;;;;;7.10;3.20;;;5.10;99.90;;;;;;4987238;28;20979;-73
2023/01/10 06:46:39;;;;;;;9.70;3.70;;;5.20;99.90;;;;;;4987005;28;20470;-73
2023/01/10 06:49:06;;;;;;;9.83;3.27;;;5.20;99.90;;;;;;4987686;28;20834;-73
2023/01/10 06:51:32;;;;;;;12.13;3.70;;;5.20;99.90;;;;;;4987620;28;20482;-73
2023/01/10 06:53:59;;;;;;;14.30;3.80;;;5.10;99.90;;;;;;4987325;28;20450;-73
2023/01/10 06:56:26;;;;;;;16.13;3.50;;;5.20;99.90;;;;;;4986410;28;20458;-73
2023/01/10 06:58:53;;;;;;;15.40;3.33;;;5.20;99.90;;;;;;4987613;28;20483;-73
2023/01/10 07:01:26;;;;;;;9.33;3.20;;;5.20;99.90;;;;;;4987141;28;20496;-73
2023/01/10 07:03:53;;;;;;;11.00;3.83;;;5.10;99.90;;;;;;4987802;28;20480;-73
2023/01/10 07:06:21;;;;;;;13.97;3.60;;;5.10;99.90;;;;;;4986400;28;20957;-73
2023/01/10 07:08:48;;;;;;;17.43;4.27;;;5.10;99.90;;;;;;4986947;28;20522;-73
2023/01/10 07:11:15;;;;;;;7.53;3.30;;;5.00;99.90;;;;;;4986725;28;20998;-73
2023/01/10 07:13:42;;;;;;;12.53;3.67;;;5.00;99.90;;;;;;4987387;28;20455;-73
2023/01/10 07:16:11;;;;;;;11.63;3.00;;;5.00;99.90;;;;;;4986442;28;20459;-74
2023/01/10 07:18:41;;;;;;;13.27;3.40;;;5.00;99.90;;;;;;4986998;28;20531;-74
2023/01/10 07:21:08;;;;;;;9.93;3.60;;;5.00;99.90;;;;;;4987162;28;20471;-74
2023/01/10 07:23:38;;;;;;;9.77;2.90;;;5.00;99.90;;;;;;4986881;28;21149;-73
2023/01/10 07:26:06;;;;;;;21.63;3.27;;;4.90;99.90;;;;;;4985722;28;20490;-73
2023/01/10 07:28:34;;;;;;;16.47;3.27;;;4.80;99.90;;;;;;4986119;28;20447;-73
2023/01/10 07:31:02;;;;;;;14.33;3.47;;;4.80;99.90;;;;;;4986507;28;20503;-74
2023/01/10 07:33:31;;;;;;;13.40;3.80;;;4.90;99.90;;;;;;4986602;28;20462;-74
2023/01/10 07:36:00;;;;;;;9.90;2.93;;;4.80;99.90;;;;;;4986077;28;20451;-74
2023/01/10 07:38:27;;;;;;;7.93;2.60;;;4.80;99.90;;;;;;4986071;28;20448;-74
2023/01/10 07:40:54;;;;;;;7.70;3.60;;;4.80;99.90;;;;;;4986287;28;20486;-74
2023/01/10 07:43:21;;;;;;;12.53;3.63;;;4.80;99.90;;;;;;4986839;28;20495;-74
2023/01/10 07:45:48;;;;;;;11.50;3.37;;;4.80;99.90;;;;;;4986943;28;20908;-74
2023/01/10 07:48:14;;;;;;;10.13;3.20;;;4.90;99.90;;;;;;4986047;28;20451;-74
2023/01/10 07:50:41;;;;;;;10.30;3.20;;;4.90;99.90;;;;;;4986388;28;20858;-74
2023/01/10 07:53:09;;;;;;;15.40;3.90;;;4.90;99.90;;;;;;4986787;28;20456;-74
2023/01/10 07:55:38;;;;;;;14.83;3.60;;;4.90;99.90;;;;;;4986611;28;20452;-74
2023/01/10 07:58:06;;;;;;;9.47;3.40;;;4.90;99.90;;;;;;4985613;28;20459;-74
2023/01/10 08:00:34;;;;;;;13.30;3.37;;;4.90;99.90;;;;;;4986042;28;20479;-74
2023/01/10 08:03:00;;;;;;;11.07;3.50;;;5.00;99.90;;;;;;4986186;28;20495;-74
2023/01/10 08:05:27;;;;;;;15.20;3.17;;;5.00;99.90;;;;;;4986256;28;20456;-74
2023/01/10 08:07:58;;;;;;;19.33;3.80;;;5.00;99.90;;;;;;4985350;28;20835;-74
2023/01/10 08:10:26;;;;;;;15.97;3.00;;;5.00;99.90;;;;;;4986623;28;20444;-74
2023/01/10 08:12:53;;;;;;;11.30;3.50;;;5.00;99.90;;;;;;4986387;28;20453;-74
2023/01/10 08:15:20;;;;;;;14.57;3.30;;;5.00;99.90;;;;;;4986108;28;20463;-74
2023/01/10 08:17:47;;;;;;;19.93;3.73;;;5.00;99.90;;;;;;4985800;28;20462;-74
2023/01/10 08:20:14;;;;;;;17.70;3.80;;;5.00;99.90;;;;;;4986209;28;20463;-74
2023/01/10 08:22:40;;;;;;;8.90;3.10;;;5.00;99.90;;;;;;4985768;28;20495;-74
2023/01/10 08:25:08;;;;;;;9.13;3.20;;;5.00;99.90;;;;;;4985949;28;20455;-74
2023/01/10 08:27:37;;;;;;;12.37;3.33;;;5.10;99.90;;;;;;4985689;28;20451;-74
2023/01/10 08:30:05;;;;;;;18.43;3.33;;;5.10;99.90;;;;;;4985421;28;20465;-74
2023/01/10 08:32:31;;;;;;;17.37;3.20;;;5.10;99.90;;;;;;4984557;28;20485;-74
2023/01/10 08:34:58;;;;;;;8.27;3.23;;;5.10;99.90;;;;;;4986277;28;20436;-74
2023/01/10 08:37:25;;;;;;;11.30;3.50;;;5.20;99.90;;;;;;4985163;28;20464;-74
2023/01/10 08:39:52;;;;;;;15.50;3.73;;;5.10;99.90;;;;;;4986245;28;20456;-74
2023/01/10 08:42:18;;;;;;;14.30;3.10;;;5.20;99.90;;;;;;4985651;28;20867;-74
2023/01/10 08:44:47;;;;;;;14.73;3.67;;;5.20;99.90;;;;;;4985995;28;21349;-74
2023/01/10 08:47:13;;;;;;;19.60;3.50;;;5.10;99.90;;;;;;4985439;28;20478;-74
2023/01/10 08:49:40;;;;;;;16.67;4.80;;;5.10;99.90;;;;;;4984559;28;20462;-74
2023/01/10 08:52:07;;;;;;;13.80;3.57;;;5.20;99.90;;;;;;4985287;28;21273;-74
2023/01/10 08:54:34;;;;;;;11.37;2.87;;;5.20;99.90;;;;;;4986078;28;20458;-74
2023/01/10 08:57:01;;;;;;;10.87;3.90;;;5.20;99.90;;;;;;4985149;28;20471;-74
2023/01/10 08:59:27;;;;;;;15.33;3.93;;;5.20;99.90;;;;;;4985945;28;20455;-74
2023/01/10 09:01:57;;;;;;;16.13;4.53;;;5.20;99.90;;;;;;4984303;28;20487;-74
2023/01/10 09:04:25;;;;;;;23.73;4.13;;;5.20;99.90;;;;;;4985607;28;20498;-74
2023/01/10 09:06:52;;;;;;;15.13;3.40;;;5.20;99.90;;;;;;4985372;28;20456;-73
2023/01/10 09:09:18;;;;;;;19.43;4.10;;;5.30;99.90;;;;;;4985799;28;20551;-74
2023/01/10 09:11:45;;;;;;;12.83;3.93;;;5.30;99.90;;;;;;4985799;28;21373;-74
2023/01/10 09:14:12;;;;;;;14.70;4.20;;;5.30;99.90;;;;;;4985527;28;20454;-74
2023/01/10 09:16:39;;;;;;;19.77;5.03;;;5.30;99.90;;;;;;4985291;28;20464;-74
2023/01/10 09:19:07;;;;;;;8.63;3.73;;;5.40;99.90;;;;;;4985642;28;20455;-74
2023/01/10 09:21:34;;;;;;;19.00;4.43;;;5.40;99.90;;;;;;4988437;28;20562;-74
2023/01/10 09:24:00;;;;;;;11.90;3.27;;;5.40;99.90;;;;;;4989291;28;20607;-74
2023/01/10 09:26:27;;;;;;;9.50;3.53;;;5.40;99.90;;;;;;4988779;28;20459;-74
2023/01/10 09:28:54;;;;;;;7.70;3.00;;;5.40;99.90;;;;;;4988957;28;21122;-74
2023/01/10 09:31:21;;;;;;;10.93;3.23;;;5.40;99.90;;;;;;4989137;28;20471;-74
2023/01/10 09:33:48;;;;;;;9.03;3.30;;;5.40;99.90;;;;;;4989031;28;20459;-74
2023/01/10 09:36:16;;;;;;;11.30;3.50;;;5.40;99.90;;;;;;4988487;28;20462;-74
2023/01/10 09:38:43;;;;;;;11.70;3.87;;;5.40;99.90;;;;;;4988995;28;20458;-74
2023/01/10 09:41:37;;;;;;;14.23;3.90;;;5.50;99.90;;;;;;4989089;28;20467;-74
2023/01/10 09:44:16;;;;;;;13.70;3.40;;;5.60;99.90;;;;;;4963597;28;20510;-74
2023/01/10 09:46:54;;;;;;;14.40;4.30;;;5.50;99.90;;;;;;4988506;28;20442;-74
2023/01/10 09:49:29;;;;;;;10.27;3.50;;;5.60;99.90;;;;;;4988615;28;21118;-74
2023/01/10 09:51:58;;;;;;;15.70;3.40;;;5.60;99.90;;;;;;4988391;28;20471;-74
2023/01/10 09:54:29;;;;;;;11.67;3.30;;;5.60;99.90;;;;;;4988922;28;20451;-74
2023/01/10 09:56:58;;;;;;;14.60;3.60;;;5.60;99.90;;;;;;4986905;28;20468;-74
2023/01/10 09:59:31;;;;;;;14.77;3.50;;;5.60;99.90;;;;;;4971355;28;20475;-74
2023/01/10 10:02:05;;;;;;;14.23;3.50;;;5.60;99.90;;;;;;4968259;28;20495;-74
2023/01/10 10:04:35;;;;;;;11.23;3.97;;;5.70;99.90;;;;;;4969375;28;20495;-74
2023/01/10 10:07:08;;;;;;;9.20;3.73;;;5.70;99.90;;;;;;4968634;28;20460;-74
2023/01/10 10:09:35;;;;;;;18.20;4.03;;;5.70;99.90;;;;;;4968822;28;20444;-74
2023/01/10 10:12:19;;;;;;;12.27;3.83;;;5.70;99.90;;;;;;4969152;28;20479;-74
2023/01/10 10:14:58;;;;;;;11.67;3.33;;;5.70;99.90;;;;;;4968690;28;20443;-74
2023/01/10 10:17:36;;;;;;;16.90;4.07;;;5.60;99.90;;;;;;4968345;28;20452;-74
2023/01/10 10:20:26;;;;;;;10.87;3.53;;;5.70;99.90;;;;;;4968705;28;20459;-74
2023/01/10 10:23:10;;;;;;;11.10;3.90;;;5.70;99.90;;;;;;4968549;28;20460;-74
2023/01/10 10:25:58;;;;;;;13.70;3.70;;;5.70;99.90;;;;;;4968368;28;20457;-74
2023/01/10 10:29:02;;;;;;;14.23;4.83;;;5.70;99.90;;;;;;4968435;28;20463;-74
2023/01/10 10:31:51;;;;;;;11.80;4.47;;;5.70;99.90;;;;;;4967757;28;21045;-73
2023/01/10 10:34:25;;;;;;;16.47;4.13;;;5.80;99.90;;;;;;4968756;28;20461;-74
2023/01/10 10:36:55;;;;;;;15.07;4.03;;;5.80;99.90;;;;;;4967863;28;20484;-74
2023/01/10 10:39:32;;;;;;;13.23;3.67;;;5.80;99.90;;;;;;4968261;28;20948;-74
2023/01/10 10:42:00;;;;;;;11.60;4.10;;;5.90;99.90;;;;;;4968088;28;21018;-74
2023/01/10 10:44:35;;;;;;;10.90;4.00;;;5.90;99.90;;;;;;4968404;28;20496;-74
2023/01/10 10:47:02;;;;;;;10.03;3.30;;;5.90;99.90;;;;;;4968123;28;20447;-74
2023/01/10 10:49:38;;;;;;;10.83;4.10;;;6.00;99.90;;;;;;4968210;28;20464;-74
2023/01/10 10:52:14;;;;;;;20.53;3.70;;;6.00;99.90;;;;;;4967897;28;20476;-74
2023/01/10 10:54:42;;;;;;;10.07;3.10;;;6.10;99.90;;;;;;4968585;28;20432;-74
2023/01/10 10:57:11;;;;;;;6.00;2.63;;;6.00;99.90;;;;;;4967713;28;20467;-74
2023/01/10 10:59:40;;;;;;;7.00;3.57;;;6.00;99.90;;;;;;4968290;28;20583;-74
2023/01/10 11:02:22;;;;;;;9.40;3.27;;;6.00;99.90;;;;;;4966665;28;20483;-74
2023/01/10 11:04:50;;;;;;;9.47;3.57;;;6.00;99.90;;;;;;4967924;28;21445;-74
2023/01/10 11:07:19;;;;;;;10.23;2.90;;;6.00;99.90;;;;;;4967424;28;20459;-74
2023/01/10 11:09:50;;;;;;;12.37;4.07;;;6.00;99.90;;;;;;4968141;28;20460;-74
2023/01/10 11:12:20;;;;;;;9.00;3.93;;;6.00;99.90;;;;;;4968219;28;20480;-74
2023/01/10 11:14:48;;;;;;;9.50;2.90;;;6.00;99.90;;;;;;4967684;28;21271;-74
2023/01/10 11:17:21;;;;;;;3.27;2.53;;;6.10;99.90;;;;;;4966683;28;21023;-74
2023/01/10 11:20:00;;;;;;;4.33;2.70;;;6.10;99.90;;;;;;4967863;28;20452;-74
2023/01/10 11:22:30;;;;;;;10.27;3.03;;;6.10;99.90;;;;;;4967509;28;20624;-74
2023/01/10 11:25:00;;;;;;;8.57;2.80;;;6.10;99.90;;;;;;4967470;28;20527;-74
2023/01/10 11:27:29;;;;;;;10.20;2.50;;;6.20;99.90;;;;;;4966888;28;20482;-74
2023/01/10 11:29:59;;;;;;;15.07;3.10;;;6.20;99.90;;;;;;4965909;28;20467;-73
2023/01/10 11:32:33;;;;;;;6.87;2.43;;;6.10;99.90;;;;;;4966581;28;20512;-74
2023/01/10 11:35:02;;;;;;;10.47;2.50;;;6.10;99.90;;;;;;4966653;28;20469;-74
2023/01/10 11:37:31;;;;;;;6.60;2.27;;;6.10;99.90;;;;;;4965672;28;20456;-74
2023/01/10 11:40:23;;;;;;;5.10;2.30;;;6.00;99.90;;;;;;4966447;28;20469;-74
2023/01/10 11:42:54;;;;;;;7.20;3.93;;;5.90;99.90;;;;;;4965792;28;20455;-74
2023/01/10 11:45:31;;;;;;;8.23;3.17;;;5.90;99.90;;;;;;4966426;28;20496;-74
2023/01/10 11:48:05;;;;;;;3.73;2.13;;;6.00;99.90;;;;;;4965672;28;20488;-74
2023/01/10 11:50:35;;;;;;;6.50;2.57;;;6.00;99.90;;;;;;4980237;28;20824;-73
2023/01/10 11:53:02;;;;;;;7.50;2.67;;;6.20;99.90;;;;;;4985708;28;20451;-74
2023/01/10 11:55:32;;;;;;;7.00;2.27;;;6.30;99.90;;;;;;4985388;28;20451;-74
2023/01/10 11:58:03;;;;;;;7.30;2.50;;;6.40;99.90;;;;;;4984709;28;20452;-74
2023/01/10 12:00:38;;;;;;;4.73;2.60;;;6.40;99.90;;;;;;4984643;28;20811;-74
2023/01/10 12:03:19;;;;;;;10.20;3.20;;;6.50;99.90;;;;;;4985238;28;20443;-74
2023/01/10 12:05:54;;;;;;;7.65;3.30;;;6.40;99.90;;;;;;4984659;28;20453;-74
2023/01/10 12:08:26;;;;;;;3.63;2.03;;;6.90;99.90;;;;;;4984907;28;20195;-74
2023/01/10 12:11:00;;;;;;;10.80;2.33;;;7.00;99.90;;;;;;4986204;28;20475;-74
2023/01/10 12:13:28;;;;;;;8.40;2.77;;;7.20;99.90;;;;;;4985529;28;20448;-74
2023/01/10 12:16:18;;;;;;;6.20;2.00;;;7.30;99.90;;;;;;4985428;28;21018;-74
2023/01/10 12:18:45;;;;;;;4.27;2.23;;;7.40;99.90;;;;;;4985577;28;20454;-74
2023/01/10 12:21:15;;;;;;;5.53;2.00;;;7.50;99.90;;;;;;4986266;28;20471;-74
2023/01/10 12:23:44;;;;;;;4.00;2.30;;;7.60;99.90;;;;;;4985769;28;20570;-74
2023/01/10 12:26:13;;;;;;;5.20;1.80;;;7.70;99.90;;;;;;4985197;28;20515;-74
2023/01/10 12:28:47;;;;;;;8.40;2.87;;;7.80;99.90;;;;;;4986331;28;20455;-73
2023/01/10 12:31:15;;;;;;;4.10;2.00;;;7.90;99.90;;;;;;4986123;28;20474;-74
2023/01/10 12:33:46;;;;;;;7.40;2.47;;;8.10;99.90;;;;;;4986239;28;20451;-73
2023/01/10 12:36:23;;;;;;;5.90;1.97;;;8.10;99.90;;;;;;4985176;28;20861;-73
2023/01/10 12:39:05;;;;;;;3.43;1.60;;;8.10;99.90;;;;;;4986110;28;20454;-73
2023/01/10 12:44:34;;;;;;;3.93;1.73;;;8.20;99.90;;;;;;4986049;28;20578;-74
2023/01/10 12:47:09;;;;;;;9.17;2.13;;;8.30;99.90;;;;;;4985520;28;20447;-73
2023/01/10 12:49:43;;;;;;;8.97;1.90;;;8.30;99.90;;;;;;4985812;28;20794;-74
2023/01/10 12:52:14;;;;;;;6.03;2.10;;;8.50;99.90;;;;;;4985711;28;20476;-74
2023/01/10 12:54:41;;;;;;;13.87;3.90;;;8.70;99.90;;;;;;4986083;28;20458;-74
2023/01/10 12:57:22;;;;;;;7.20;2.17;;;8.80;99.90;;;;;;4988895;28;20456;-74
2023/01/10 12:59:49;;;;;;;6.00;2.20;;;8.90;99.90;;;;;;4990069;28;20460;-74
2023/01/10 13:02:20;;;;;;;3.27;1.90;;;8.90;99.90;;;;;;4989551;28;20495;-74
2023/01/10 13:04:52;;;;;;;6.23;2.10;;;8.70;99.90;;;;;;4989270;28;20881;-74
2023/01/10 13:07:19;;;;;;;3.80;1.80;;;8.60;99.90;;;;;;4988989;28;20456;-74
2023/01/10 13:09:48;;;;;;;6.50;2.60;;;8.40;99.90;;;;;;4989399;28;20465;-74
2023/01/10 13:12:21;;;;;;;6.30;1.90;;;8.10;99.90;;;;;;4987842;28;20471;-74
2023/01/10 13:14:55;;;;;;;6.10;2.40;;;8.00;99.90;;;;;;4988554;28;21161;-74
2023/01/10 13:17:32;;;;;;;7.07;2.80;;;8.00;99.90;;;;;;4987997;28;20481;-74
2023/01/10 13:20:19;;;;;;;6.77;2.97;;;8.00;99.90;;;;;;4988493;28;20443;-74
2023/01/10 13:22:47;;;;;;;5.37;2.33;;;7.90;99.90;;;;;;4988499;28;20477;-74
2023/01/10 13:25:22;;;;;;;5.70;2.00;;;8.00;99.90;;;;;;4988208;28;20931;-74
2023/01/10 13:27:57;;;;;;;4.70;2.30;;;8.00;99.90;;;;;;4987183;28;20891;-74
2023/01/10 13:30:28;;;;;;;5.57;2.50;;;8.00;99.90;;;;;;4988142;28;20465;-74
2023/01/10 13:33:01;;;;;;;3.03;2.30;;;8.00;99.90;;;;;;4988048;28;20940;-74
2023/01/10 13:35:37;;;;;;;4.10;2.00;;;8.00;99.90;;;;;;4988432;28;20432;-74
2023/01/10 13:38:04;;;;;;;6.50;2.00;;;8.00;99.90;;;;;;4987639;28;20447;-74
2023/01/10 13:40:31;;;;;;;6.07;2.60;;;8.00;99.90;;;;;;4988143;28;20440;-74
2023/01/10 13:43:40;;;;;;;4.27;2.07;;;8.00;99.90;;;;;;4987783;28;20447;-74
2023/01/10 13:46:34;;;;;;;6.43;2.60;;;8.00;99.90;;;;;;4971737;28;20518;-74
2023/01/10 13:49:38;;;;;;;5.40;2.60;;;7.90;99.90;;;;;;4988103;28;20451;-74
2023/01/10 13:52:38;;;;;;;5.17;2.47;;;7.90;99.90;;;;;;4987942;28;20501;-74
2023/01/10 13:55:32;;;;;;;5.43;2.10;;;7.80;99.90;;;;;;4987732;28;20452;-74
2023/01/10 13:58:01;;;;;;;6.60;2.83;;;7.80;99.90;;;;;;4986777;28;20882;-74
2023/01/10 14:03:43;;;;;;;8.70;3.20;;;7.90;99.90;;;;;;4987711;28;20586;-74
2023/01/10 14:06:16;;;;;;;7.00;2.63;;;7.90;99.90;;;;;;4987302;28;20501;-74
2023/01/10 14:08:52;;;;;;;7.90;3.03;;;7.90;99.90;;;;;;4988278;28;20448;-74
2023/01/10 14:11:22;;;;;;;23.43;5.10;;;7.90;99.90;;;;;;4987415;28;20471;-74
2023/01/10 14:13:52;;;;;;;7.40;3.23;;;7.80;99.90;;;;;;4988390;28;20465;-74
2023/01/10 14:16:31;;;;;;;6.67;3.03;;;7.80;99.90;;;;;;4987501;28;20452;-74
2023/01/10 14:19:00;;;;;;;9.23;2.60;;;7.80;99.90;;;;;;4988460;28;20466;-74
2023/01/10 14:21:29;;;;;;;8.17;2.40;;;7.60;99.90;;;;;;4988417;28;20479;-74
2023/01/10 14:23:57;;;;;;;6.70;2.20;;;7.50;99.90;;;;;;4988176;28;20447;-74
2023/01/10 14:26:30;;;;;;;4.00;1.83;;;7.50;99.90;;;;;;4987172;28;21085;-74
2023/01/10 14:29:00;;;;;;;7.57;2.10;;;7.50;99.90;;;;;;4987945;28;20460;-74
2023/01/10 14:31:27;;;;;;;5.77;1.93;;;7.60;99.90;;;;;;4988183;28;20472;-74
2023/01/10 14:33:55;;;;;;;5.63;1.80;;;7.60;99.90;;;;;;4988083;28;20452;-74
2023/01/10 14:36:26;;;;;;;8.30;2.13;;;7.60;99.90;;;;;;4987031;28;20525;-74
2023/01/10 14:38:55;;;;;;;4.83;1.63;;;7.60;99.90;;;;;;4987747;28;20444;-73
2023/01/10 14:41:31;;;;;;;5.60;2.60;;;7.60;99.90;;;;;;4987427;28;20479;-74
2023/01/10 14:44:02;;;;;;;4.50;2.30;;;7.60;99.90;;;;;;4988086;28;20439;-74
2023/01/10 14:46:38;;;;;;;9.50;2.13;;;7.50;99.90;;;;;;4987068;28;20486;-73
2023/01/10 14:49:21;;;;;;;6.10;2.40;;;7.50;99.90;;;;;;4987928;28;20435;-74
2023/01/10 14:51:50;;;;;;;5.57;2.57;;;7.50;99.90;;;;;;4987217;28;20479;-73
2023/01/10 14:54:19;;;;;;;11.60;2.90;;;7.50;99.90;;;;;;4987281;28;20463;-74
2023/01/10 14:56:48;;;;;;;7.07;2.20;;;7.40;99.90;;;;;;4987138;28;20461;-76
2023/01/10 14:59:25;;;;;;;7.93;2.20;;;7.40;99.90;;;;;;4988492;28;20547;-72
2023/01/10 15:01:55;;;;;;;6.30;1.93;;;7.40;99.90;;;;;;4987544;28;20502;-72
2023/01/10 15:04:23;;;;;;;2.97;2.00;;;7.40;99.90;;;;;;4987580;28;20453;-73
2023/01/10 15:06:54;;;;;;;9.57;2.43;;;7.50;99.90;;;;;;4987226;28;20464;-73
2023/01/10 15:09:21;;;;;;;7.07;2.53;;;7.40;99.90;;;;;;4987810;28;20458;-74
2023/01/10 15:11:50;;;;;;;8.53;2.80;;;7.40;99.90;;;;;;4986644;28;20487;-74
2023/01/10 15:14:18;;;;;;;9.57;2.70;;;7.40;99.90;;;;;;4987525;28;20452;-73
2023/01/10 15:16:47;;;;;;;7.37;2.03;;;7.40;99.90;;;;;;4986198;28;20828;-74
2023/01/10 15:19:17;;;;;;;5.17;1.93;;;7.40;99.90;;;;;;4986728;28;20448;-74
2023/01/10 15:21:45;;;;;;;8.40;2.07;;;7.50;99.90;;;;;;4986666;28;20475;-74
2023/01/10 15:24:31;;;;;;;6.97;1.83;;;7.50;99.90;;;;;;4985832;28;20806;-74
2023/01/10 15:27:00;;;;;;;9.80;1.90;;;7.40;99.90;;;;;;4985125;28;20451;-74
2023/01/10 15:29:27;;;;;;;5.43;2.03;;;7.40;99.90;;;;;;4985905;28;20467;-74
2023/01/10 15:31:57;;;;;;;3.27;2.30;;;7.40;99.90;;;;;;4985470;28;20479;-74
2023/01/10 15:34:28;;;;;;;9.40;2.30;;;7.40;99.90;;;;;;4985937;28;20458;-74
2023/01/10 15:36:57;;;;;;;6.47;2.63;;;7.30;99.90;;;;;;4985333;28;20467;-74
2023/01/10 15:39:28;;;;;;;15.50;2.80;;;7.30;99.90;;;;;;4986855;28;20459;-74
2023/01/10 15:41:58;;;;;;;9.57;3.33;;;7.30;99.90;;;;;;4986936;28;20483;-74
2023/01/10 15:44:37;;;;;;;11.90;3.97;;;7.30;99.90;;;;;;4987051;28;20452;-74
2023/01/10 15:47:04;;;;;;;9.10;4.40;;;7.20;99.90;;;;;;4986258;28;20459;-74
2023/01/10 15:49:31;;;;;;;8.20;4.10;;;7.20;99.90;;;;;;4986534;28;20806;-74
2023/01/10 15:51:58;;;;;;;7.57;2.70;;;7.20;99.90;;;;;;4986712;28;20485;-74
2023/01/10 15:54:32;;;;;;;6.90;3.03;;;7.20;99.90;;;;;;4986674;28;20578;-74
2023/01/10 15:57:07;;;;;;;10.03;3.60;;;7.10;99.90;;;;;;4985925;28;20450;-74
2023/01/10 15:59:38;;;;;;;3.90;2.40;;;7.10;99.90;;;;;;4986505;28;21486;-74
2023/01/10 16:02:20;;;;;;;5.03;2.37;;;7.00;99.90;;;;;;4984745;28;20493;-74
2023/01/10 16:04:51;;;;;;;5.40;3.07;;;6.90;99.90;;;;;;4986208;28;20487;-74
2023/01/10 16:07:22;;;;;;;6.03;2.70;;;7.00;99.90;;;;;;4985892;28;20462;-74
2023/01/10 16:09:57;;;;;;;6.70;3.10;;;6.90;99.90;;;;;;4986535;28;20455;-75
2023/01/10 16:15:16;;;;;;;3.97;2.37;;;6.80;99.90;;;;;;4986052;28;20829;-74
2023/01/10 16:17:43;;;;;;;6.57;2.57;;;6.70;99.90;;;;;;4985421;28;20459;-74
2023/01/10 16:20:13;;;;;;;6.30;2.30;;;6.70;99.90;;;;;;4986250;28;20463;-73
2023/01/10 16:22:40;;;;;;;7.30;2.83;;;6.70;99.90;;;;;;4986165;28;20456;-73
2023/01/10 16:25:14;;;;;;;8.90;2.37;;;6.70;99.90;;;;;;4985887;28;21032;-73
2023/01/10 16:27:41;;;;;;;11.60;2.73;;;6.70;99.90;;;;;;4985590;28;20447;-73
2023/01/10 16:30:21;;;;;;;23.53;4.10;;;6.60;99.90;;;;;;4985024;28;20440;-72
2023/01/10 16:32:48;;;;;;;7.50;2.80;;;6.60;99.90;;;;;;4986356;28;20518;-73
2023/01/10 16:35:15;;;;;;;9.90;2.70;;;6.60;99.90;;;;;;4986247;28;20464;-73
2023/01/10 16:37:42;;;;;;;7.70;2.87;;;6.60;99.90;;;;;;4985398;28;20550;-73
2023/01/10 16:40:18;;;;;;;5.67;3.07;;;6.60;99.90;;;;;;4985840;28;20465;-73
2023/01/10 16:45:29;;;;;;;9.93;4.50;;;6.50;99.90;;;;;;4985848;28;20478;-73
2023/01/10 16:47:56;;;;;;;6.17;4.03;;;6.50;99.90;;;;;;4985031;28;20987;-73
2023/01/10 16:50:22;;;;;;;9.03;4.77;;;6.50;99.90;;;;;;4985863;28;20836;-73
2023/01/10 16:52:49;;;;;;;8.30;3.90;;;6.40;99.90;;;;;;4986079;28;20470;-73
2023/01/10 16:55:24;;;;;;;7.37;3.63;;;6.40;99.90;;;;;;4985981;28;20448;-73
2023/01/10 16:57:55;;;;;;;8.77;4.07;;;6.50;99.90;;;;;;4985521;28;20450;-73
2023/01/10 17:00:22;;;;;;;14.00;4.00;;;6.50;99.90;;;;;;4985573;28;20455;-73
2023/01/10 17:02:49;;;;;;;17.43;5.57;;;6.50;99.90;;;;;;4985768;28;20460;-73
2023/01/10 17:05:16;;;;;;;12.37;5.30;;;6.50;99.90;;;;;;4985915;28;20617;-73
2023/01/10 17:07:43;;;;;;;11.03;4.97;;;6.50;99.90;;;;;;4984975;28;20948;-73
2023/01/10 17:10:11;;;;;;;13.53;6.53;;;6.50;99.90;;;;;;4985536;28;20573;-73
2023/01/10 17:12:42;;;;;;;13.37;5.70;;;6.50;99.90;;;;;;4985720;28;21000;-73
2023/01/10 17:15:12;;;;;;;17.07;5.80;;;6.50;99.90;;;;;;4985817;28;20459;-73
2023/01/10 17:17:43;;;;;;;9.50;5.10;;;6.50;99.90;;;;;;4984726;28;20468;-73
2023/01/10 17:20:11;;;;;;;6.90;3.50;;;6.50;99.90;;;;;;4985517;28;20436;-73
2023/01/10 17:22:38;;;;;;;11.93;4.70;;;6.50;99.90;;;;;;4985554;28;20483;-73
2023/01/10 17:25:06;;;;;;;11.77;4.07;;;6.50;99.90;;;;;;4985425;28;20956;-73
2023/01/10 17:27:34;;;;;;;9.40;3.37;;;6.50;99.90;;;;;;4985035;28;20459;-73
2023/01/10 17:30:02;;;;;;;9.90;3.83;;;6.40;99.90;;;;;;4985733;28;20543;-74
2023/01/10 17:32:29;;;;;;;15.90;7.00;;;6.40;99.90;;;;;;4985676;28;20474;-73
2023/01/10 17:34:56;;;;;;;9.90;5.50;;;6.40;99.90;;;;;;4985791;28;20459;-73
2023/01/10 17:37:22;;;;;;;10.43;5.60;;;6.30;99.90;;;;;;4984789;28;20826;-74
2023/01/10 17:39:49;;;;;;;13.30;6.70;;;6.30;99.90;;;;;;4985258;28;20456;-73
2023/01/10 17:42:16;;;;;;;10.53;5.70;;;6.30;99.90;;;;;;4988007;28;20482;-73
2023/01/10 17:44:43;;;;;;;12.40;5.10;;;6.30;99.90;;;;;;4988728;28;20986;-73
2023/01/10 17:47:14;;;;;;;12.60;4.80;;;6.20;99.90;;;;;;4986977;28;20502;-75
2023/01/10 17:49:41;;;;;;;8.40;3.13;;;6.20;99.90;;;;;;4988447;28;20444;-75
2023/01/10 17:52:08;;;;;;;9.33;2.97;;;6.30;99.90;;;;;;4987933;28;20916;-76
2023/01/10 17:54:35;;;;;;;4.87;3.00;;;6.30;99.90;;;;;;4987531;28;20458;-76
2023/01/10 17:57:02;;;;;;;4.63;2.97;;;6.30;99.90;;;;;;4987030;28;20458;-75
2023/01/10 17:59:29;;;;;;;4.47;2.47;;;6.20;99.90;;;;;;4987941;28;20462;-75
2023/01/10 18:01:56;;;;;;;5.33;2.50;;;6.30;99.90;;;;;;4987381;28;20486;-76
2023/01/10 18:04:24;;;;;;;12.93;4.80;;;6.30;99.90;;;;;;4987684;28;20459;-75
2023/01/10 18:06:51;;;;;;;13.17;7.27;;;6.30;99.90;;;;;;4987434;28;20500;-76
2023/01/10 18:09:18;;;;;;;12.23;4.43;;;6.20;99.90;;;;;;4988624;28;20459;-76
2023/01/10 18:11:45;;;;;;;9.07;4.03;;;6.20;99.90;;;;;;4988039;28;20476;-75
2023/01/10 18:16:56;;;;;;;11.67;5.40;;;6.20;99.90;;;;;;4987624;28;20435;-76
2023/01/10 18:19:24;;;;;;;9.23;5.10;;;6.20;99.90;;;;;;4987857;28;20464;-76
2023/01/10 18:21:51;;;;;;;10.30;6.00;;;6.20;99.90;;;;;;4988047;28;20479;-74
2023/01/10 18:24:18;;;;;;;8.10;5.67;;;6.20;99.90;;;;;;4988321;28;20482;-76